createdAt,value
2017-01-09T00:18:38.154Z,1006.91
2017-01-09T00:19:48.482Z,1006.94
2017-01-09T00:20:58.675Z,1006.95
2017-01-09T00:21:49.107Z,1006.91
2017-01-09T00:22:59.440Z,1006.98
2017-01-09T00:24:09.765Z,1006.94
2017-01-09T00:25:20.089Z,1006.97
2017-01-09T00:26:30.418Z,1006.98
2017-01-09T00:27:20.864Z,1006.97
2017-01-09T01:19:37.217Z,1006.91
2017-01-09T01:20:47.516Z,1006.9
2017-01-09T02:19:07.859Z,1006.75
2017-01-09T03:19:29.678Z,1006.3
2017-01-09T03:20:39.992Z,1006.33
2017-01-09T03:21:50.314Z,1006.29
2017-01-09T04:21:11.211Z,1005.91
2017-01-09T04:22:21.336Z,1005.94
2017-01-09T05:21:18.888Z,1005.58
2017-01-09T05:22:29.177Z,1005.62
2017-01-09T05:23:19.604Z,1005.54
2017-01-09T05:24:29.942Z,1005.51
2017-01-09T05:25:40.264Z,1005.5
2017-01-09T05:26:50.591Z,1005.47
2017-01-09T05:28:00.922Z,1005.47
2017-01-09T06:20:50.784Z,1005.28
2017-01-09T07:21:04.584Z,1004.66
2017-01-09T08:19:17.755Z,1004.62
2017-01-09T08:20:28.067Z,1004.62
2017-01-09T08:21:38.386Z,1004.62
2017-01-09T08:22:48.716Z,1004.65
2017-01-09T09:20:03.305Z,1004.51
2017-01-09T09:20:53.734Z,1004.49
2017-01-09T09:22:04.060Z,1004.49
2017-01-09T09:23:14.389Z,1004.48
2017-01-09T09:24:24.723Z,1004.51
2017-01-09T10:19:54.237Z,1004.02
2017-01-09T10:21:04.362Z,1004.03
2017-01-09T10:22:14.675Z,1004.04
2017-01-09T10:23:25.003Z,1004.06
2017-01-09T10:24:35.341Z,1004.01
2017-01-09T10:25:45.679Z,1004.02
2017-01-09T10:26:56.013Z,1003.95
2017-01-09T10:28:06.350Z,1003.95
2017-01-09T10:29:16.679Z,1003.95
2017-01-09T10:30:27.024Z,1003.95
2017-01-09T11:19:56.997Z,1003.39
2017-01-09T12:20:01.701Z,1002.26
2017-01-09T12:21:12.029Z,1002.27
2017-01-09T12:22:02.460Z,1002.25
2017-01-09T12:22:52.893Z,1002.28
2017-01-09T12:24:03.221Z,1002.29
2017-01-09T13:20:35.547Z,1001.23
2017-01-09T13:21:45.884Z,1001.23
2017-01-09T13:22:56.213Z,1001.22
2017-01-09T14:19:28.654Z,1000.63
2017-01-09T14:20:19.076Z,1000.59
2017-01-09T14:21:29.406Z,1000.62
2017-01-09T14:22:39.735Z,1000.59
2017-01-09T14:23:50.068Z,1000.53
2017-01-09T14:25:00.401Z,1000.45
2017-01-09T14:26:10.734Z,1000.41
2017-01-09T14:27:01.170Z,1000.41
2017-01-09T14:28:11.505Z,1000.42
2017-01-09T14:29:21.845Z,1000.37
2017-01-09T14:30:12.283Z,1000.37
2017-01-09T15:18:38.998Z,1000.14
2017-01-09T15:19:29.395Z,1000.14
2017-01-09T16:19:01.543Z,999.76
2017-01-09T16:20:11.866Z,999.75
2017-01-09T16:21:22.196Z,999.84
2017-01-09T17:19:58.369Z,999.27
2017-01-09T17:21:08.693Z,999.28
2017-01-09T17:21:59.116Z,999.25
2017-01-09T17:23:09.447Z,999.26
2017-01-09T18:20:58.386Z,998.41
2017-01-09T19:20:07.433Z,997.84
2017-01-09T20:18:59.939Z,996.85
2017-01-09T20:20:10.245Z,996.75
2017-01-09T21:18:09.636Z,995.64
2017-01-09T21:19:00.082Z,995.63
2017-01-09T22:19:08.395Z,994.67
2017-01-09T22:20:18.714Z,994.62
2017-01-09T23:19:11.935Z,993.9
2017-01-09T23:20:02.092Z,993.91
